Time;durP1;ratioP1;P1;durP2;ratioP2;P2;SDS_P1;SDS_P2;PMS_P1;PMS_P2;Temp;Humidity;BMP_temperature;BMP_pressure;BME280_temperature;BME280_humidity;BME280_pressure;Samples;Min_cycle;Max_cycle;Signal;HPM_P1;HPM_P2
2021/07/07 00:00:35;;;;;;;4.97;3.47;;;;;;;;;;5113876;28;20539;-80
2021/07/07 00:03:02;;;;;;;3.63;3.27;;;;;;;;;;5116103;27;21122;-77
2021/07/07 00:05:30;;;;;;;2.90;2.60;;;;;;;;;;5113931;28;20486;-76
2021/07/07 00:07:58;;;;;;;3.10;2.80;;;;;;;;;;5114113;27;20509;-77
2021/07/07 00:10:28;;;;;;;3.53;3.20;;;;;;;;;;5117125;27;20518;-79
2021/07/07 00:12:58;;;;;;;4.23;3.30;;;;;;;;;;5113334;28;20450;-77
2021/07/07 00:15:27;;;;;;;4.20;3.13;;;;;;;;;;5114088;27;20443;-76
2021/07/07 00:17:55;;;;;;;4.37;3.03;;;;;;;;;;5116012;27;20484;-78
2021/07/07 00:20:22;;;;;;;4.17;2.90;;;;;;;;;;5113746;28;20503;-79
2021/07/07 00:22:49;;;;;;;3.00;2.20;;;;;;;;;;5112825;28;20475;-78
2021/07/07 00:25:18;;;;;;;3.17;2.30;;;;;;;;;;5119469;27;20523;-78
2021/07/07 00:27:45;;;;;;;3.80;2.97;;;;;;;;;;5117514;27;20942;-77
2021/07/07 00:30:13;;;;;;;6.50;2.70;;;;;;;;;;5113570;28;20458;-77
2021/07/07 00:32:40;;;;;;;3.57;2.13;;;;;;;;;;5112740;28;20487;-77
2021/07/07 00:35:07;;;;;;;2.20;2.00;;;;;;;;;;5113383;28;20523;-77
2021/07/07 00:37:34;;;;;;;4.07;2.27;;;;;;;;;;5112929;28;20472;-79
2021/07/07 00:40:02;;;;;;;2.50;2.30;;;;;;;;;;5123395;27;20878;-78
2021/07/07 00:42:30;;;;;;;4.10;2.53;;;;;;;;;;5113209;28;20526;-79
2021/07/07 00:44:57;;;;;;;2.97;2.50;;;;;;;;;;5113647;28;20536;-78
2021/07/07 00:47:24;;;;;;;3.70;3.40;;;;;;;;;;5112978;28;20458;-77
2021/07/07 00:49:51;;;;;;;3.97;3.43;;;;;;;;;;5115626;27;20446;-80
2021/07/07 00:52:19;;;;;;;3.67;3.30;;;;;;;;;;5109876;27;20441;-78
2021/07/07 00:54:46;;;;;;;3.90;3.50;;;;;;;;;;5110395;28;20473;-80
2021/07/07 00:57:15;;;;;;;5.23;3.97;;;;;;;;;;5112453;28;20503;-78
2021/07/07 00:59:45;;;;;;;3.53;3.17;;;;;;;;;;5114721;27;20447;-78
2021/07/07 01:02:13;;;;;;;4.10;3.70;;;;;;;;;;5112295;28;20460;-80
2021/07/07 01:04:40;;;;;;;5.63;3.33;;;;;;;;;;5111826;28;20478;-79
2021/07/07 01:07:07;;;;;;;4.20;2.90;;;;;;;;;;5113821;27;20848;-79
2021/07/07 01:09:35;;;;;;;3.73;3.23;;;;;;;;;;5121206;27;20875;-79
2021/07/07 01:12:02;;;;;;;4.73;3.23;;;;;;;;;;5112734;28;20436;-79
2021/07/07 01:14:30;;;;;;;2.90;2.20;;;;;;;;;;5111700;28;20539;-77
2021/07/07 01:16:59;;;;;;;3.40;2.70;;;;;;;;;;5117586;27;20543;-79
2021/07/07 01:19:26;;;;;;;3.20;2.90;;;;;;;;;;5115163;27;20470;-78
2021/07/07 01:21:54;;;;;;;4.70;3.17;;;;;;;;;;5111877;28;20444;-79
2021/07/07 01:24:22;;;;;;;8.33;3.57;;;;;;;;;;5123047;27;20462;-81
2021/07/07 01:26:50;;;;;;;6.10;3.63;;;;;;;;;;5111591;28;20516;-77
2021/07/07 01:29:17;;;;;;;5.30;4.53;;;;;;;;;;5114506;27;20436;-80
2021/07/07 01:31:44;;;;;;;4.90;4.17;;;;;;;;;;5112529;27;20459;-79
2021/07/07 01:34:12;;;;;;;4.37;3.97;;;;;;;;;;5120625;27;20444;-79
2021/07/07 01:36:39;;;;;;;4.77;4.10;;;;;;;;;;5124645;27;20535;-78
2021/07/07 01:39:08;;;;;;;4.87;3.83;;;;;;;;;;5126678;27;20570;-79
2021/07/07 01:41:36;;;;;;;4.43;3.80;;;;;;;;;;5114925;28;20552;-78
2021/07/07 01:44:03;;;;;;;4.50;3.80;;;;;;;;;;5111987;28;20443;-78
2021/07/07 01:46:30;;;;;;;4.17;3.43;;;;;;;;;;5112720;28;20535;-74
2021/07/07 01:48:57;;;;;;;5.27;3.73;;;;;;;;;;5112236;28;20878;-80
2021/07/07 01:51:24;;;;;;;4.07;2.97;;;;;;;;;;5108647;28;20456;-78
2021/07/07 01:53:52;;;;;;;5.60;3.77;;;;;;;;;;5100555;28;20953;-78
2021/07/07 01:56:20;;;;;;;4.63;3.50;;;;;;;;;;5113403;27;20523;-78
2021/07/07 01:58:47;;;;;;;4.47;3.23;;;;;;;;;;5096546;28;20658;-76
2021/07/07 02:01:15;;;;;;;5.30;4.80;;;;;;;;;;5104245;28;20444;-78
2021/07/07 02:03:42;;;;;;;4.47;4.07;;;;;;;;;;5110538;28;20512;-78
2021/07/07 02:06:09;;;;;;;6.10;4.27;;;;;;;;;;5118472;27;20452;-78
2021/07/07 02:08:36;;;;;;;8.57;5.17;;;;;;;;;;5110928;28;20535;-78
2021/07/07 02:11:03;;;;;;;5.53;4.77;;;;;;;;;;5117650;27;20443;-77
2021/07/07 02:13:32;;;;;;;5.43;4.73;;;;;;;;;;5110719;28;20498;-77
2021/07/07 02:15:59;;;;;;;6.23;5.20;;;;;;;;;;5120784;27;20448;-81
2021/07/07 02:18:26;;;;;;;5.60;4.67;;;;;;;;;;5111078;28;20513;-78
2021/07/07 02:20:53;;;;;;;5.33;4.37;;;;;;;;;;5111863;28;20527;-78
2021/07/07 02:23:20;;;;;;;6.87;4.87;;;;;;;;;;5119003;28;20548;-78
2021/07/07 02:25:48;;;;;;;7.27;5.17;;;;;;;;;;5110845;28;20531;-78
2021/07/07 02:28:16;;;;;;;5.77;5.27;;;;;;;;;;5111480;28;20526;-77
2021/07/07 02:30:45;;;;;;;6.67;5.67;;;;;;;;;;5110759;28;20553;-77
2021/07/07 02:33:12;;;;;;;6.90;5.23;;;;;;;;;;5104045;28;20542;-78
2021/07/07 02:35:41;;;;;;;6.10;5.30;;;;;;;;;;5125666;28;20531;-78
2021/07/07 02:38:09;;;;;;;5.97;5.33;;;;;;;;;;5111130;28;20562;-78
2021/07/07 02:40:37;;;;;;;6.00;5.20;;;;;;;;;;5117506;28;20446;-79
2021/07/07 02:43:05;;;;;;;6.40;5.47;;;;;;;;;;5111817;28;20812;-78
2021/07/07 02:45:33;;;;;;;9.13;5.63;;;;;;;;;;5111009;28;20455;-79
2021/07/07 02:48:02;;;;;;;6.00;5.30;;;;;;;;;;5115243;28;21030;-78
2021/07/07 02:50:29;;;;;;;5.57;4.97;;;;;;;;;;5119207;28;20537;-77
2021/07/07 02:52:57;;;;;;;7.40;5.20;;;;;;;;;;5113751;28;21006;-79
2021/07/07 02:55:24;;;;;;;6.40;5.80;;;;;;;;;;5111340;28;20463;-79
2021/07/07 02:57:57;;;;;;;5.57;5.07;;;;;;;;;;5109573;28;20475;-78
2021/07/07 03:00:25;;;;;;;6.43;4.93;;;;;;;;;;5117705;28;20434;-79
2021/07/07 03:02:52;;;;;;;9.20;4.40;;;;;;;;;;5110161;28;20995;-77
2021/07/07 03:05:21;;;;;;;4.40;3.93;;;;;;;;;;5113288;28;20568;-79
2021/07/07 03:07:48;;;;;;;6.07;4.03;;;;;;;;;;5119466;27;20472;-79
2021/07/07 03:10:16;;;;;;;6.13;3.80;;;;;;;;;;5121645;27;20448;-79
2021/07/07 03:12:43;;;;;;;7.63;4.17;;;;;;;;;;5121559;27;20517;-79
2021/07/07 03:15:11;;;;;;;3.33;3.03;;;;;;;;;;5114890;28;20432;-79
2021/07/07 03:17:38;;;;;;;4.70;4.00;;;;;;;;;;5125955;27;20447;-78
2021/07/07 03:20:06;;;;;;;3.77;3.40;;;;;;;;;;5114749;28;20446;-80
2021/07/07 03:22:34;;;;;;;4.47;3.60;;;;;;;;;;5124344;27;20438;-79
2021/07/07 03:25:01;;;;;;;3.90;3.50;;;;;;;;;;5115135;27;20526;-78
2021/07/07 03:27:29;;;;;;;3.80;3.50;;;;;;;;;;5126788;27;20530;-79
2021/07/07 03:29:56;;;;;;;4.13;3.70;;;;;;;;;;5114785;28;20448;-79
2021/07/07 03:32:23;;;;;;;3.87;3.13;;;;;;;;;;5124641;27;20823;-80
2021/07/07 03:34:50;;;;;;;3.50;3.20;;;;;;;;;;5135050;27;20542;-80
2021/07/07 03:37:17;;;;;;;3.80;3.30;;;;;;;;;;5134833;27;20526;-79
2021/07/07 03:39:46;;;;;;;5.00;2.80;;;;;;;;;;5114933;27;20844;-78
2021/07/07 03:42:13;;;;;;;3.30;2.70;;;;;;;;;;5115152;27;20443;-79
2021/07/07 03:44:40;;;;;;;2.73;2.10;;;;;;;;;;5113583;28;20443;-80
2021/07/07 03:47:07;;;;;;;2.40;2.10;;;;;;;;;;5118511;27;20539;-79
2021/07/07 03:49:34;;;;;;;4.03;2.70;;;;;;;;;;5113187;28;20447;-80
2021/07/07 03:52:01;;;;;;;5.13;2.50;;;;;;;;;;5108908;28;20446;-78
2021/07/07 03:54:29;;;;;;;2.83;1.80;;;;;;;;;;5114161;28;20479;-79
2021/07/07 03:56:57;;;;;;;2.93;2.57;;;;;;;;;;5114075;28;20464;-79
2021/07/07 03:59:24;;;;;;;2.80;2.37;;;;;;;;;;5113128;28;20832;-79
2021/07/07 04:01:52;;;;;;;5.23;2.20;;;;;;;;;;5122424;27;20461;-78
2021/07/07 04:04:19;;;;;;;2.40;2.07;;;;;;;;;;5112806;27;20475;-76
2021/07/07 04:06:47;;;;;;;3.60;2.60;;;;;;;;;;5110593;28;20479;-76
2021/07/07 04:09:18;;;;;;;3.57;2.47;;;;;;;;;;5110833;28;20527;-79
2021/07/07 04:11:46;;;;;;;3.13;2.83;;;;;;;;;;5103572;28;20449;-78
2021/07/07 04:14:15;;;;;;;2.83;2.63;;;;;;;;;;5111186;28;20471;-79
2021/07/07 04:16:42;;;;;;;6.07;3.20;;;;;;;;;;5112822;28;20518;-80
2021/07/07 04:19:09;;;;;;;4.33;3.93;;;;;;;;;;5113802;28;20566;-79
2021/07/07 04:21:37;;;;;;;4.57;4.10;;;;;;;;;;5113414;28;20527;-76
2021/07/07 04:24:04;;;;;;;3.57;3.27;;;;;;;;;;5115171;27;20489;-72
2021/07/07 04:26:31;;;;;;;3.80;3.50;;;;;;;;;;5113194;28;20927;-73
2021/07/07 04:28:58;;;;;;;4.13;3.23;;;;;;;;;;5114563;28;20450;-76
2021/07/07 04:31:27;;;;;;;3.80;3.50;;;;;;;;;;5114726;28;20531;-76
2021/07/07 04:33:54;;;;;;;4.73;3.57;;;;;;;;;;5122559;27;21022;-76
2021/07/07 04:36:21;;;;;;;3.80;3.00;;;;;;;;;;5117550;27;20859;-76
2021/07/07 04:38:48;;;;;;;3.73;2.83;;;;;;;;;;5115123;27;20485;-76
2021/07/07 04:41:15;;;;;;;2.97;2.63;;;;;;;;;;5106298;28;20439;-77
2021/07/07 04:43:42;;;;;;;4.60;2.60;;;;;;;;;;5111963;28;20546;-76
2021/07/07 04:46:10;;;;;;;4.20;3.17;;;;;;;;;;5113091;28;20528;-74
2021/07/07 04:48:38;;;;;;;3.80;2.80;;;;;;;;;;5119359;27;20869;-76
2021/07/07 04:51:05;;;;;;;3.63;2.30;;;;;;;;;;5114569;27;20451;-76
2021/07/07 04:53:32;;;;;;;7.23;3.33;;;;;;;;;;5099421;28;20526;-78
2021/07/07 04:56:00;;;;;;;3.90;2.30;;;;;;;;;;5126319;27;20808;-76
2021/07/07 04:58:27;;;;;;;3.13;2.27;;;;;;;;;;5100821;28;20818;-78
2021/07/07 05:00:54;;;;;;;2.73;2.43;;;;;;;;;;5111762;28;20999;-72
2021/07/07 05:03:21;;;;;;;3.13;2.83;;;;;;;;;;5110540;28;20975;-76
2021/07/07 05:05:50;;;;;;;5.10;2.87;;;;;;;;;;5111464;28;20446;-75
2021/07/07 05:08:17;;;;;;;3.17;2.20;;;;;;;;;;5112747;28;20530;-75
2021/07/07 05:10:46;;;;;;;2.37;2.07;;;;;;;;;;5111903;28;20820;-75
2021/07/07 05:13:13;;;;;;;3.83;2.00;;;;;;;;;;5112055;28;20998;-75
2021/07/07 05:15:40;;;;;;;4.13;2.30;;;;;;;;;;5112075;28;20446;-76
2021/07/07 05:18:08;;;;;;;4.10;3.07;;;;;;;;;;5112766;28;20446;-76
2021/07/07 05:20:35;;;;;;;6.83;2.40;;;;;;;;;;5112168;28;20530;-75
2021/07/07 05:23:07;;;;;;;2.87;1.97;;;;;;;;;;5112308;28;20530;-74
2021/07/07 05:25:34;;;;;;;2.33;2.13;;;;;;;;;;5112095;28;20431;-76
2021/07/07 05:28:02;;;;;;;2.13;1.93;;;;;;;;;;5111356;28;20443;-75
2021/07/07 05:30:30;;;;;;;2.00;1.80;;;;;;;;;;5112395;28;20816;-75
2021/07/07 05:32:57;;;;;;;2.20;2.00;;;;;;;;;;5111717;28;20462;-75
2021/07/07 05:35:24;;;;;;;2.67;1.60;;;;;;;;;;5112216;28;20458;-75
2021/07/07 05:37:52;;;;;;;2.10;1.90;;;;;;;;;;5111450;28;20443;-74
2021/07/07 05:40:21;;;;;;;1.87;1.77;;;;;;;;;;5112279;28;20482;-75
2021/07/07 05:42:52;;;;;;;1.70;1.50;;;;;;;;;;5111397;28;20494;-75
2021/07/07 05:45:19;;;;;;;3.07;1.73;;;;;;;;;;5112315;28;20553;-76
2021/07/07 05:47:47;;;;;;;2.00;1.87;;;;;;;;;;5111778;28;20443;-75
2021/07/07 05:50:14;;;;;;;2.17;1.97;;;;;;;;;;5132345;27;20472;-75
2021/07/07 05:52:41;;;;;;;2.43;1.80;;;;;;;;;;5103792;27;20532;-75
2021/07/07 05:55:09;;;;;;;2.40;2.13;;;;;;;;;;5112318;28;20526;-77
2021/07/07 05:57:40;;;;;;;3.47;1.90;;;;;;;;;;5111400;28;20471;-74
2021/07/07 06:00:09;;;;;;;2.03;1.83;;;;;;;;;;5109895;27;20557;-75
2021/07/07 06:02:37;;;;;;;2.60;1.40;;;;;;;;;;5131277;27;20486;-75
2021/07/07 06:05:05;;;;;;;3.17;2.00;;;;;;;;;;5132525;27;20518;-74
2021/07/07 06:07:32;;;;;;;1.53;1.43;;;;;;;;;;5131758;27;20525;-75
2021/07/07 06:09:59;;;;;;;2.00;1.83;;;;;;;;;;5132651;27;20533;-75
2021/07/07 06:12:26;;;;;;;3.23;2.90;;;;;;;;;;5131683;27;20542;-75
2021/07/07 06:14:55;;;;;;;7.10;4.93;;;;;;;;;;5131646;27;21009;-75
2021/07/07 06:17:22;;;;;;;3.37;2.47;;;;;;;;;;5128745;27;20479;-75
2021/07/07 06:19:49;;;;;;;3.50;2.20;;;;;;;;;;5111205;28;20616;-76
2021/07/07 06:22:16;;;;;;;2.80;1.93;;;;;;;;;;5111305;28;20964;-75
2021/07/07 06:24:43;;;;;;;2.80;2.00;;;;;;;;;;5111328;28;20482;-76
2021/07/07 06:27:11;;;;;;;2.67;1.60;;;;;;;;;;5111542;28;20470;-75
2021/07/07 06:29:38;;;;;;;3.43;1.60;;;;;;;;;;5111167;28;20815;-75
2021/07/07 06:32:06;;;;;;;2.90;1.80;;;;;;;;;;5111126;28;20948;-76
2021/07/07 06:34:34;;;;;;;2.10;1.50;;;;;;;;;;5110784;28;20530;-76
2021/07/07 06:37:01;;;;;;;2.30;1.30;;;;;;;;;;5111110;28;20461;-75
2021/07/07 06:39:28;;;;;;;1.50;1.20;;;;;;;;;;5113778;28;20483;-75
2021/07/07 06:41:55;;;;;;;3.43;1.63;;;;;;;;;;5115373;28;20811;-76
2021/07/07 06:44:23;;;;;;;2.63;1.60;;;;;;;;;;5115705;28;20804;-75
2021/07/07 06:46:50;;;;;;;1.40;1.20;;;;;;;;;;5115144;28;20911;-76
2021/07/07 06:49:18;;;;;;;6.13;1.70;;;;;;;;;;5115299;28;20974;-75
2021/07/07 06:51:46;;;;;;;1.80;1.53;;;;;;;;;;5114902;28;20443;-75
2021/07/07 06:54:13;;;;;;;2.93;1.40;;;;;;;;;;5115138;28;20444;-75
2021/07/07 06:56:40;;;;;;;2.63;1.57;;;;;;;;;;5114996;28;20479;-76
2021/07/07 06:59:07;;;;;;;3.13;1.63;;;;;;;;;;5104407;27;20562;-75
2021/07/07 07:01:34;;;;;;;2.07;1.30;;;;;;;;;;5135340;27;20450;-75
2021/07/07 07:04:02;;;;;;;3.40;1.33;;;;;;;;;;5135308;27;20562;-76
2021/07/07 07:06:30;;;;;;;2.70;1.37;;;;;;;;;;5135779;27;20957;-76
2021/07/07 07:08:58;;;;;;;2.07;1.40;;;;;;;;;;5135817;27;20446;-75
2021/07/07 07:11:25;;;;;;;3.13;1.80;;;;;;;;;;5136075;27;20450;-76
2021/07/07 07:13:52;;;;;;;3.30;2.03;;;;;;;;;;5134801;27;20607;-75
2021/07/07 07:16:20;;;;;;;2.03;1.83;;;;;;;;;;5135666;27;20517;-76
2021/07/07 07:18:47;;;;;;;3.10;1.93;;;;;;;;;;5134901;27;20450;-76
2021/07/07 07:21:15;;;;;;;3.43;1.83;;;;;;;;;;5135589;27;20453;-76
2021/07/07 07:23:43;;;;;;;2.23;1.60;;;;;;;;;;5134533;27;20541;-76
2021/07/07 07:26:10;;;;;;;1.43;1.10;;;;;;;;;;5135401;27;20446;-75
2021/07/07 07:28:37;;;;;;;2.07;1.33;;;;;;;;;;5134976;27;20485;-76
2021/07/07 07:31:05;;;;;;;1.50;1.40;;;;;;;;;;5135345;27;20874;-76
2021/07/07 07:33:32;;;;;;;2.50;1.40;;;;;;;;;;5133951;27;20533;-76
2021/07/07 07:35:59;;;;;;;3.27;1.60;;;;;;;;;;5135152;27;21004;-75
2021/07/07 07:38:30;;;;;;;2.37;1.10;;;;;;;;;;5135306;27;20446;-75
2021/07/07 07:40:59;;;;;;;2.20;1.30;;;;;;;;;;5135501;27;20478;-76
2021/07/07 07:43:26;;;;;;;2.87;1.40;;;;;;;;;;5134456;27;20998;-75
2021/07/07 07:45:56;;;;;;;5.83;1.70;;;;;;;;;;5134614;27;20446;-76
2021/07/07 07:48:23;;;;;;;1.50;1.40;;;;;;;;;;5134761;27;20533;-75
2021/07/07 07:50:51;;;;;;;2.90;1.60;;;;;;;;;;5133555;27;20461;-75
2021/07/07 07:53:18;;;;;;;2.50;1.50;;;;;;;;;;5106953;27;20529;-75
2021/07/07 07:55:45;;;;;;;1.97;1.50;;;;;;;;;;5134088;27;20474;-76
2021/07/07 07:58:17;;;;;;;1.37;1.13;;;;;;;;;;5130672;27;20939;-76
2021/07/07 08:00:45;;;;;;;1.83;1.40;;;;;;;;;;5113375;28;20476;-76
2021/07/07 08:03:12;;;;;;;1.70;1.30;;;;;;;;;;5113629;28;20486;-76
2021/07/07 08:05:39;;;;;;;3.07;1.90;;;;;;;;;;5113852;28;20450;-75
2021/07/07 08:08:07;;;;;;;2.60;1.77;;;;;;;;;;5113826;28;20922;-76
2021/07/07 08:10:34;;;;;;;5.30;2.27;;;;;;;;;;5113127;28;20534;-76
2021/07/07 08:13:01;;;;;;;7.37;2.40;;;;;;;;;;5113565;28;20450;-76
2021/07/07 08:15:30;;;;;;;2.57;2.20;;;;;;;;;;5114140;28;20440;-76
2021/07/07 08:17:58;;;;;;;3.10;2.13;;;;;;;;;;5113998;28;21335;-76
2021/07/07 08:20:26;;;;;;;2.03;1.43;;;;;;;;;;5113822;28;20483;-76
2021/07/07 08:22:54;;;;;;;2.10;1.40;;;;;;;;;;5112843;28;20617;-76
2021/07/07 08:25:21;;;;;;;3.47;1.60;;;;;;;;;;5113413;28;20455;-76
2021/07/07 08:27:48;;;;;;;3.70;2.50;;;;;;;;;;5113162;28;20455;-76
2021/07/07 08:30:16;;;;;;;2.50;1.67;;;;;;;;;;5113698;28;20543;-76
2021/07/07 08:32:45;;;;;;;3.30;1.87;;;;;;;;;;5112460;28;20462;-76
2021/07/07 08:35:13;;;;;;;5.83;2.50;;;;;;;;;;5116173;27;20543;-76
2021/07/07 08:37:41;;;;;;;4.00;1.50;;;;;;;;;;5133643;27;20958;-76
2021/07/07 08:40:09;;;;;;;6.43;3.07;;;;;;;;;;5133920;27;20482;-76
2021/07/07 08:42:37;;;;;;;2.83;1.80;;;;;;;;;;5133103;27;20467;-76
2021/07/07 08:45:07;;;;;;;4.07;1.90;;;;;;;;;;5133864;27;20537;-76
2021/07/07 08:47:36;;;;;;;2.70;1.80;;;;;;;;;;5135325;27;20463;-75
2021/07/07 08:50:05;;;;;;;4.13;2.20;;;;;;;;;;5136428;27;20449;-76
2021/07/07 08:52:32;;;;;;;2.20;2.00;;;;;;;;;;5107224;27;20882;-76
2021/07/07 08:55:00;;;;;;;4.47;2.27;;;;;;;;;;5112735;28;20472;-76
2021/07/07 08:57:28;;;;;;;2.30;2.10;;;;;;;;;;5113010;28;20482;-76
2021/07/07 08:59:55;;;;;;;2.13;1.93;;;;;;;;;;5108275;27;20490;-76
2021/07/07 09:02:23;;;;;;;2.83;1.90;;;;;;;;;;5133022;27;20482;-76
2021/07/07 09:04:50;;;;;;;2.87;2.30;;;;;;;;;;5133064;27;20447;-76
2021/07/07 09:07:21;;;;;;;4.97;2.37;;;18.30;99.90;;;;;;5133560;27;20517;-76
2021/07/07 09:09:51;;;;;;;6.07;2.10;;;19.70;1.00;;;;;;5132802;27;20446;-76
2021/07/07 09:12:21;;;;;;;4.23;2.20;;;19.60;1.00;;;;;;5132588;27;20536;-76
2021/07/07 09:14:50;;;;;;;7.70;1.87;;;19.50;1.00;;;;;;5132847;27;20522;-76
2021/07/07 09:17:18;;;;;;;4.70;1.80;;;19.60;1.00;;;;;;5133101;27;20513;-76
2021/07/07 09:19:46;;;;;;;3.53;1.57;;;19.50;63.90;;;;;;5132901;27;20443;-76
2021/07/07 09:22:15;;;;;;;2.80;1.57;;;19.60;1.00;;;;;;5132717;27;20451;-76
2021/07/07 09:24:48;;;;;;;2.40;1.80;;;19.40;1.00;;;;;;5132754;27;20515;-76
2021/07/07 09:27:16;;;;;;;7.97;1.90;;;19.50;1.00;;;;;;5133042;27;20530;-76
2021/07/07 09:29:46;;;;;;;2.90;1.40;;;19.50;99.90;;;;;;5132597;27;20481;-76
2021/07/07 09:32:16;;;;;;;1.83;1.00;;;19.50;1.00;;;;;;5132523;27;20964;-76
2021/07/07 09:34:44;;;;;;;3.60;1.80;;;19.40;91.80;;;;;;5132352;27;20450;-76
2021/07/07 09:37:20;;;;;;;4.47;1.60;;;19.40;8.70;;;;;;5132760;27;20549;-76
2021/07/07 09:39:49;;;;;;;2.13;1.50;;;19.70;1.00;;;;;;5132129;27;20934;-75
2021/07/07 09:42:24;;;;;;;6.03;1.53;;;19.80;99.90;;;;;;5132412;27;20534;-75
2021/07/07 09:44:51;;;;;;;2.00;1.30;;;19.60;99.90;;;;;;5132015;27;20533;-75
2021/07/07 09:47:20;;;;;;;3.87;1.53;;;19.70;1.00;;;;;;5132960;27;20442;-75
2021/07/07 09:49:48;;;;;;;1.63;1.33;;;19.50;99.90;;;;;;5132147;27;20503;-74
2021/07/07 09:52:16;;;;;;;4.50;1.50;;;19.50;1.00;;;;;;5111040;27;20449;-75
2021/07/07 09:54:45;;;;;;;3.13;1.30;;;19.40;1.00;;;;;;5109058;28;20451;-75
2021/07/07 09:57:13;;;;;;;3.43;1.50;;;19.50;1.00;;;;;;5112207;28;20447;-75
2021/07/07 09:59:40;;;;;;;3.13;1.67;;;19.70;99.90;;;;;;5105595;27;20541;-75
2021/07/07 10:02:07;;;;;;;3.27;1.40;;;19.50;99.90;;;;;;5132067;27;20455;-74
2021/07/07 10:04:38;;;;;;;2.90;1.17;;;19.40;99.90;;;;;;5131570;27;20558;-75
2021/07/07 10:07:08;;;;;;;1.80;1.50;;;19.50;99.90;;;;;;5132544;27;20910;-75
2021/07/07 10:09:36;;;;;;;2.23;1.63;;;19.30;99.90;;;;;;5131800;27;20484;-75
2021/07/07 10:12:04;;;;;;;2.30;1.30;;;19.20;99.90;;;;;;5132215;27;20454;-75
2021/07/07 10:14:33;;;;;;;2.93;1.70;;;19.50;99.90;;;;;;5131268;27;20994;-75
2021/07/07 10:17:00;;;;;;;2.00;1.47;;;19.70;99.90;;;;;;5132482;28;20481;-75
2021/07/07 10:19:28;;;;;;;1.47;1.30;;;20.10;1.00;;;;;;5124217;27;21010;-75
2021/07/07 10:21:56;;;;;;;2.30;1.57;;;20.40;99.90;;;;;;5111355;28;20566;-75
2021/07/07 10:24:25;;;;;;;2.00;1.63;;;;;;;;;;5111531;28;20513;-75
2021/07/07 10:26:53;;;;;;;1.93;1.43;;;;;;;;;;5110845;28;20458;-75
2021/07/07 10:29:20;;;;;;;3.27;1.57;;;;;;;;;;5121372;28;20454;-75
2021/07/07 10:31:50;;;;;;;1.67;1.27;;;;;;;;;;5131114;28;20454;-75
2021/07/07 10:34:17;;;;;;;3.23;1.53;;;;;;;;;;5132292;28;20438;-75
2021/07/07 10:36:44;;;;;;;1.77;1.37;;;;;;;;;;5131393;28;21014;-75
2021/07/07 10:39:12;;;;;;;3.20;1.50;;;;;;;;;;5132065;28;20613;-76
2021/07/07 10:42:00;;;;;;;2.13;1.30;;;20.20;1.00;;;;;;5131019;28;20581;-75
2021/07/07 10:44:47;;;;;;;2.73;1.50;;;20.50;99.90;;;;;;5132307;28;20451;-76
2021/07/07 10:47:15;;;;;;;3.13;1.60;;;20.80;1.00;;;;;;5131765;27;20443;-75
2021/07/07 10:49:44;;;;;;;1.57;1.27;;;21.20;1.00;;;;;;5131452;28;20449;-76
2021/07/07 10:52:13;;;;;;;3.50;1.60;;;20.30;99.90;;;;;;5111194;28;20498;-75
2021/07/07 10:54:42;;;;;;;3.13;1.37;;;20.10;1.00;;;;;;5107421;28;21002;-75
2021/07/07 10:57:10;;;;;;;2.13;1.67;;;20.20;1.00;;;;;;5111365;28;20838;-76
2021/07/07 10:59:39;;;;;;;2.00;1.70;;;20.20;1.00;;;;;;5104103;28;20453;-75
2021/07/07 11:02:07;;;;;;;3.37;1.70;;;20.30;1.00;;;;;;5131686;28;20915;-75
2021/07/07 11:04:40;;;;;;;1.60;1.50;;;20.50;99.90;;;;;;5131520;28;20482;-76
2021/07/07 11:07:34;;;;;;;2.47;1.53;;;20.50;99.90;;;;;;5131735;27;20987;-75
2021/07/07 11:10:04;;;;;;;1.83;1.63;;;20.50;1.00;;;;;;5131645;28;20451;-76
2021/07/07 11:12:46;;;;;;;3.97;2.20;;;;;;;;;;5132047;27;20518;-76
2021/07/07 11:15:14;;;;;;;2.70;1.43;;;20.60;99.90;;;;;;5131805;27;20434;-76
2021/07/07 11:17:43;;;;;;;3.33;1.67;;;21.00;1.00;;;;;;5131109;28;20439;-76
2021/07/07 11:20:14;;;;;;;2.57;1.47;;;20.90;1.00;;;;;;5131573;28;20438;-76
2021/07/07 11:22:43;;;;;;;2.83;1.63;;;20.70;99.90;;;;;;5131049;28;20495;-76
2021/07/07 11:25:13;;;;;;;2.20;1.40;;;20.90;99.90;;;;;;5131537;27;20519;-75
2021/07/07 11:27:40;;;;;;;2.70;1.47;;;20.90;1.00;;;;;;5134872;27;20517;-76
2021/07/07 11:30:09;;;;;;;2.57;2.10;;;21.20;96.10;;;;;;5134992;27;20537;-76
2021/07/07 11:32:39;;;;;;;1.80;1.37;;;21.40;96.20;;;;;;5134342;27;20477;-76
2021/07/07 11:35:07;;;;;;;1.73;1.07;;;21.50;99.90;;;;;;5135035;27;20901;-76
2021/07/07 11:37:37;;;;;;;3.40;1.67;;;21.70;99.90;;;;;;5134632;27;20491;-76
2021/07/07 11:40:15;;;;;;;2.43;1.10;;;21.80;99.90;;;;;;5135356;27;20804;-76
2021/07/07 11:42:58;;;;;;;2.37;1.20;;;22.40;1.00;;;;;;5134115;27;20600;-76
2021/07/07 11:45:26;;;;;;;2.77;1.93;;;22.10;1.00;;;;;;5134975;27;20443;-76
2021/07/07 11:47:57;;;;;;;2.00;1.50;;;22.00;1.00;;;;;;5133536;27;20445;-76
2021/07/07 11:50:25;;;;;;;1.47;1.23;;;22.30;81.30;;;;;;5114841;28;20518;-76
2021/07/07 11:53:02;;;;;;;2.87;1.37;;;22.60;1.00;;;;;;5113613;28;20534;-76
2021/07/07 11:55:50;;;;;;;2.27;0.90;;;22.40;99.90;;;;;;5114649;28;20464;-76
2021/07/07 11:58:22;;;;;;;1.50;1.00;;;22.50;1.00;;;;;;5114667;28;20463;-76
2021/07/07 12:00:50;;;;;;;1.37;1.23;;;22.80;99.90;;;;;;5113822;28;20751;-76
2021/07/07 12:03:18;;;;;;;2.03;1.10;;;22.30;1.00;;;;;;5113890;28;20560;-76
2021/07/07 12:05:53;;;;;;;2.30;1.00;;;22.20;6.00;;;;;;5113205;28;20526;-76
2021/07/07 12:08:23;;;;;;;1.47;1.27;;;22.40;1.00;;;;;;5114166;28;20438;-76
2021/07/07 12:10:51;;;;;;;1.40;1.00;;;23.10;1.00;;;;;;5113533;28;20483;-76
2021/07/07 12:13:22;;;;;;;1.70;1.20;;;23.10;99.90;;;;;;5113526;28;20450;-76
2021/07/07 12:15:49;;;;;;;1.30;0.90;;;22.90;1.00;;;;;;5113059;28;20765;-76
2021/07/07 12:18:27;;;;;;;1.70;1.03;;;22.60;1.00;;;;;;5113895;28;20452;-76
2021/07/07 12:20:55;;;;;;;1.33;1.23;;;22.80;1.00;;;;;;5113511;28;20483;-76
2021/07/07 12:23:24;;;;;;;1.63;0.93;;;22.30;99.90;;;;;;5113131;28;20522;-76
2021/07/07 12:26:02;;;;;;;1.30;1.10;;;22.40;1.00;;;;;;5113185;28;20440;-76
2021/07/07 12:28:31;;;;;;;1.40;1.10;;;22.40;1.00;;;;;;5113405;28;20534;-76
2021/07/07 12:30:59;;;;;;;2.07;1.10;;;22.20;99.90;;;;;;5113731;28;20818;-76
2021/07/07 12:33:30;;;;;;;1.30;1.20;;;22.00;99.90;;;;;;5112871;28;20459;-76
2021/07/07 12:35:57;;;;;;;1.37;1.10;;;22.20;99.90;;;;;;5113615;28;20777;-76
2021/07/07 12:38:26;;;;;;;1.60;1.30;;;22.00;14.50;;;;;;5113633;28;20526;-76
2021/07/07 12:40:54;;;;;;;1.30;0.90;;;22.20;1.00;;;;;;5112951;28;20493;-76
2021/07/07 12:43:27;;;;;;;1.30;0.93;;;22.30;99.90;;;;;;5112775;28;20442;-76
2021/07/07 12:46:08;;;;;;;1.10;0.90;;;22.20;1.00;;;;;;5113007;28;20475;-76
2021/07/07 12:48:52;;;;;;;1.60;1.10;;;22.60;1.00;;;;;;5112478;28;21010;-76
2021/07/07 12:51:24;;;;;;;1.67;1.30;;;22.80;99.90;;;;;;5112925;28;20550;-76
2021/07/07 12:53:52;;;;;;;1.20;1.10;;;22.80;12.80;;;;;;5112603;28;20440;-76
2021/07/07 12:56:20;;;;;;;1.50;1.13;;;23.00;86.60;;;;;;5112698;28;20904;-76
2021/07/07 12:58:47;;;;;;;1.17;1.00;;;23.50;99.90;;;;;;5103654;28;20999;-76
2021/07/07 13:01:21;;;;;;;1.23;1.13;;;23.60;1.00;;;;;;5128215;27;20543;-76
2021/07/07 13:03:48;;;;;;;1.30;1.20;;;23.40;1.00;;;;;;5132496;27;20466;-76
2021/07/07 13:06:22;;;;;;;1.30;1.20;;;23.00;99.90;;;;;;5133369;27;20449;-76
2021/07/07 13:09:00;;;;;;;1.77;1.37;;;22.70;99.90;;;;;;5132775;27;20692;-76
2021/07/07 13:11:28;;;;;;;1.07;0.97;;;22.70;99.90;;;;;;5133046;27;20466;-76
2021/07/07 13:13:57;;;;;;;1.73;1.20;;;23.00;1.00;;;;;;5133160;27;20990;-76
2021/07/07 13:16:26;;;;;;;2.60;1.17;;;23.50;16.70;;;;;;5133398;27;20450;-76
2021/07/07 13:19:05;;;;;;;1.00;0.90;;;23.50;99.90;;;;;;5132303;27;20451;-76
2021/07/07 13:21:37;;;;;;;1.03;0.90;;;23.50;99.90;;;;;;5132268;27;20555;-75
2021/07/07 13:24:08;;;;;;;1.03;0.93;;;23.80;99.90;;;;;;5133510;27;20439;-75
2021/07/07 13:26:41;;;;;;;1.30;1.10;;;23.70;1.00;;;;;;5119832;27;20986;-75
2021/07/07 13:29:20;;;;;;;1.20;0.80;;;23.50;1.00;;;;;;5112653;28;20436;-76
2021/07/07 13:32:16;;;;;;;2.80;0.80;;;23.80;1.00;;;;;;5111343;28;20467;-76
2021/07/07 13:34:45;;;;;;;0.97;0.87;;;23.70;1.00;;;;;;5111979;28;20463;-75
2021/07/07 13:37:16;;;;;;;0.80;0.70;;;23.30;1.00;;;;;;5112162;28;20943;-75
2021/07/07 13:39:46;;;;;;;1.00;0.90;;;23.10;54.00;;;;;;5111866;28;20450;-75
2021/07/07 13:42:14;;;;;;;0.80;0.80;;;23.30;99.90;;;;;;5112011;28;20475;-75
2021/07/07 13:44:41;;;;;;;1.00;0.90;;;23.40;99.90;;;;;;5111259;28;20471;-75
2021/07/07 13:47:09;;;;;;;5.90;5.40;;;23.50;99.90;;;;;;5112213;28;20443;-76
2021/07/07 13:49:35;;;;;;;1.13;0.90;;;23.60;5.80;;;;;;5110879;28;20546;-76
2021/07/07 13:52:03;;;;;;;1.87;1.00;;;23.80;11.00;;;;;;5111651;28;20531;-76
2021/07/07 13:54:30;;;;;;;1.33;0.90;;;23.70;1.00;;;;;;5111565;28;20450;-75
2021/07/07 13:56:58;;;;;;;1.00;0.90;;;23.10;99.90;;;;;;5112383;28;20534;-76
2021/07/07 13:59:25;;;;;;;1.50;1.00;;;22.90;99.90;;;;;;5103335;27;20895;-76
2021/07/07 14:01:52;;;;;;;0.80;0.70;;;23.10;1.00;;;;;;5131659;27;20581;-76
2021/07/07 14:04:19;;;;;;;1.10;1.00;;;;;;;;;;5132241;27;20979;-76
2021/07/07 14:06:46;;;;;;;1.20;1.10;;;22.70;1.00;;;;;;5131602;27;20962;-76
2021/07/07 14:09:14;;;;;;;1.10;1.00;;;24.50;99.90;;;;;;5132534;27;20525;-76
2021/07/07 14:11:41;;;;;;;5.93;1.50;;;24.30;99.90;;;;;;5131264;27;20447;-76